createdAt,value
2022-11-07T00:02:05.173Z,100.00
2022-11-07T00:04:37.053Z,100.00
2022-11-07T00:07:06.612Z,100.00
2022-11-07T00:09:35.956Z,100.00
2022-11-07T00:12:05.275Z,100.00
2022-11-07T00:14:32.995Z,100.00
2022-11-07T00:17:00.718Z,100.00
2022-11-07T00:19:31.485Z,100.00
2022-11-07T00:21:59.129Z,100.00
2022-11-07T00:24:28.172Z,100.00
2022-11-07T00:26:55.926Z,100.00
2022-11-07T00:29:23.632Z,100.00
2022-11-07T00:31:51.581Z,100.00
2022-11-07T00:34:19.377Z,100.00
2022-11-07T00:36:47.054Z,100.00
2022-11-07T00:39:14.748Z,100.00
2022-11-07T00:41:44.304Z,100.00
2022-11-07T00:44:15.041Z,100.00
2022-11-07T00:46:42.708Z,100.00
2022-11-07T00:49:11.188Z,100.00
2022-11-07T00:51:42.055Z,100.00
2022-11-07T00:54:09.750Z,100.00
2022-11-07T00:56:37.416Z,100.00
2022-11-07T00:59:06.678Z,100.00
2022-11-07T01:01:35.432Z,100.00
2022-11-07T01:04:21.313Z,100.00
2022-11-07T01:06:51.671Z,100.00
2022-11-07T01:09:22.155Z,100.00
2022-11-07T01:11:50.494Z,100.00
2022-11-07T01:14:21.912Z,100.00
2022-11-07T01:16:50.226Z,100.00
2022-11-07T01:19:18.151Z,100.00
2022-11-07T01:21:45.969Z,100.00
2022-11-07T01:24:14.846Z,100.00
2022-11-07T01:26:44.640Z,100.00
2022-11-07T01:29:12.279Z,100.00
2022-11-07T01:31:41.617Z,100.00
2022-11-07T01:34:09.351Z,100.00
2022-11-07T01:36:37.314Z,100.00
2022-11-07T01:39:05.826Z,100.00
2022-11-07T01:41:36.223Z,100.00
2022-11-07T01:44:05.900Z,100.00
2022-11-07T01:46:35.428Z,100.00
2022-11-07T01:49:17.357Z,100.00
2022-11-07T01:51:50.024Z,100.00
2022-11-07T01:54:20.014Z,100.00
2022-11-07T01:56:54.456Z,100.00
2022-11-07T01:59:26.694Z,100.00
2022-11-07T02:01:54.714Z,100.00
2022-11-07T02:04:28.806Z,100.00
2022-11-07T02:07:02.803Z,100.00
2022-11-07T02:09:30.571Z,100.00
2022-11-07T02:12:00.963Z,100.00
2022-11-07T02:14:31.288Z,100.00
2022-11-07T02:16:59.104Z,100.00
2022-11-07T02:19:36.114Z,100.00
2022-11-07T02:22:09.954Z,100.00
2022-11-07T02:24:43.414Z,100.00
2022-11-07T02:27:14.771Z,100.00
2022-11-07T02:29:46.212Z,100.00
2022-11-07T02:32:14.205Z,100.00
2022-11-07T02:34:41.868Z,100.00
2022-11-07T02:37:20.259Z,100.00
2022-11-07T02:39:49.490Z,100.00
2022-11-07T02:42:18.285Z,100.00
2022-11-07T02:44:46.797Z,100.00
2022-11-07T02:47:17.883Z,100.00
2022-11-07T02:49:45.586Z,100.00
2022-11-07T02:52:13.297Z,100.00
2022-11-07T02:54:40.927Z,100.00
2022-11-07T02:57:09.939Z,100.00
2022-11-07T02:59:39.484Z,100.00
2022-11-07T03:02:07.206Z,100.00
2022-11-07T03:04:34.971Z,100.00
2022-11-07T03:07:02.685Z,100.00
2022-11-07T03:09:32.889Z,100.00
2022-11-07T03:12:00.591Z,100.00
2022-11-07T03:14:30.329Z,100.00
2022-11-07T03:16:59.283Z,100.00
2022-11-07T03:19:29.510Z,100.00
2022-11-07T03:21:57.144Z,100.00
2022-11-07T03:24:24.823Z,100.00
2022-11-07T03:26:52.488Z,100.00
2022-11-07T03:29:20.189Z,100.00
2022-11-07T03:31:49.160Z,100.00
2022-11-07T03:34:16.819Z,100.00
2022-11-07T03:36:47.075Z,100.00
2022-11-07T03:39:14.743Z,100.00
2022-11-07T03:41:42.402Z,100.00
2022-11-07T03:44:12.799Z,100.00
2022-11-07T03:46:40.431Z,100.00
2022-11-07T03:49:09.460Z,100.00
2022-11-07T03:51:37.082Z,100.00
2022-11-07T03:54:04.940Z,100.00
2022-11-07T03:56:32.670Z,100.00
2022-11-07T03:59:00.335Z,100.00
2022-11-07T04:01:30.970Z,100.00
2022-11-07T04:03:58.747Z,100.00
2022-11-07T04:06:27.790Z,100.00
2022-11-07T04:08:55.417Z,100.00
2022-11-07T04:11:43.113Z,100.00
2022-11-07T04:14:31.497Z,100.00
2022-11-07T04:17:16.736Z,100.00
2022-11-07T04:19:46.431Z,100.00
2022-11-07T04:22:15.699Z,100.00
2022-11-07T04:24:46.370Z,100.00
2022-11-07T04:27:33.820Z,100.00
2022-11-07T04:30:18.832Z,100.00
2022-11-07T04:32:47.278Z,100.00
2022-11-07T04:35:17.854Z,100.00
2022-11-07T04:37:47.934Z,100.00
2022-11-07T04:40:16.712Z,100.00
2022-11-07T04:42:48.614Z,100.00
2022-11-07T04:45:17.129Z,100.00
2022-11-07T04:47:48.263Z,100.00
2022-11-07T04:50:17.481Z,100.00
2022-11-07T04:52:47.120Z,100.00
2022-11-07T04:55:21.998Z,100.00
2022-11-07T04:57:50.171Z,100.00
2022-11-07T05:00:19.807Z,100.00
2022-11-07T05:02:48.049Z,100.00
2022-11-07T05:05:15.958Z,100.00
2022-11-07T05:07:44.098Z,100.00
2022-11-07T05:10:19.861Z,100.00
2022-11-07T05:12:48.063Z,100.00
2022-11-07T05:15:16.731Z,100.00
2022-11-07T05:17:44.722Z,100.00
2022-11-07T05:20:27.185Z,100.00
2022-11-07T05:23:15.281Z,100.00
2022-11-07T05:25:49.292Z,100.00
2022-11-07T05:28:25.959Z,100.00
2022-11-07T05:31:00.005Z,100.00
2022-11-07T05:33:28.375Z,100.00
2022-11-07T05:35:56.169Z,100.00
2022-11-07T05:38:24.399Z,100.00
2022-11-07T05:40:53.445Z,100.00
2022-11-07T05:43:21.092Z,100.00
2022-11-07T05:45:48.766Z,100.00
2022-11-07T05:48:16.475Z,100.00
2022-11-07T05:50:44.138Z,100.00
2022-11-07T05:53:12.103Z,100.00
2022-11-07T05:55:40.128Z,100.00
2022-11-07T05:58:13.024Z,100.00
2022-11-07T06:00:41.142Z,100.00
2022-11-07T06:03:09.570Z,100.00
2022-11-07T06:05:38.964Z,100.00
2022-11-07T06:08:07.566Z,100.00
2022-11-07T06:10:36.594Z,100.00
2022-11-07T06:13:06.188Z,100.00
2022-11-07T06:15:37.489Z,100.00
2022-11-07T06:18:07.342Z,100.00
2022-11-07T06:20:35.329Z,100.00
2022-11-07T06:23:08.469Z,100.00
2022-11-07T06:25:37.471Z,100.00
2022-11-07T06:28:07.471Z,100.00
2022-11-07T06:30:38.439Z,100.00
2022-11-07T06:33:11.401Z,100.00
2022-11-07T06:35:39.209Z,100.00
2022-11-07T06:38:10.155Z,100.00
2022-11-07T06:40:38.466Z,100.00
2022-11-07T06:43:07.501Z,100.00
2022-11-07T06:45:39.127Z,100.00
2022-11-07T06:48:07.666Z,100.00
2022-11-07T06:50:38.395Z,100.00
2022-11-07T06:53:15.133Z,100.00
2022-11-07T06:55:43.172Z,100.00
2022-11-07T06:58:10.805Z,100.00
2022-11-07T07:00:41.676Z,100.00
2022-11-07T07:03:09.512Z,100.00
2022-11-07T07:05:37.335Z,100.00
2022-11-07T07:08:07.413Z,100.00
2022-11-07T07:10:39.820Z,100.00
2022-11-07T07:13:07.575Z,100.00
2022-11-07T07:15:50.014Z,100.00
2022-11-07T07:18:20.865Z,100.00
2022-11-07T07:20:49.090Z,100.00
2022-11-07T07:23:17.499Z,100.00
2022-11-07T07:25:45.485Z,100.00
2022-11-07T07:28:16.199Z,100.00
2022-11-07T07:30:47.329Z,100.00
2022-11-07T07:33:16.831Z,100.00
2022-11-07T07:35:46.060Z,100.00
2022-11-07T07:38:13.747Z,100.00
2022-11-07T07:40:41.522Z,100.00
2022-11-07T07:43:09.235Z,100.00
2022-11-07T07:45:39.572Z,100.00
2022-11-07T07:48:07.656Z,100.00
2022-11-07T07:50:35.397Z,100.00
2022-11-07T07:53:08.893Z,100.00
2022-11-07T07:55:37.304Z,100.00
2022-11-07T07:58:05.119Z,100.00
2022-11-07T08:00:32.918Z,100.00
2022-11-07T08:03:02.096Z,100.00
2022-11-07T08:05:29.909Z,100.00
2022-11-07T08:07:59.546Z,100.00
2022-11-07T08:10:41.991Z,100.00
2022-11-07T08:13:10.535Z,100.00
2022-11-07T08:15:38.310Z,100.00
2022-11-07T08:18:06.280Z,100.00
2022-11-07T08:20:34.043Z,100.00
2022-11-07T08:23:03.025Z,100.00
2022-11-07T08:25:32.475Z,100.00
2022-11-07T08:28:00.466Z,100.00
2022-11-07T08:30:28.533Z,100.00
2022-11-07T08:32:56.634Z,100.00
2022-11-07T08:35:24.441Z,100.00
2022-11-07T08:37:53.727Z,100.00
2022-11-07T08:40:21.611Z,100.00
2022-11-07T08:42:50.758Z,100.00
2022-11-07T08:45:18.749Z,100.00
2022-11-07T08:47:49.449Z,100.00
2022-11-07T08:50:17.396Z,100.00
2022-11-07T08:52:45.157Z,100.00
2022-11-07T08:55:12.941Z,100.00
2022-11-07T08:57:40.737Z,100.00
2022-11-07T09:00:11.490Z,100.00
2022-11-07T09:03:12.627Z,100.00
2022-11-07T09:05:27.487Z,100.00
2022-11-07T09:07:55.249Z,100.00
2022-11-07T09:10:22.916Z,100.00
2022-11-07T09:12:51.905Z,100.00
2022-11-07T09:15:21.500Z,100.00
2022-11-07T09:17:51.003Z,100.00
2022-11-07T09:20:19.701Z,100.00
2022-11-07T09:22:48.357Z,100.00
2022-11-07T09:25:16.193Z,100.00
2022-11-07T09:27:43.889Z,100.00
2022-11-07T09:30:12.656Z,100.00
2022-11-07T09:32:45.858Z,100.00
2022-11-07T09:35:17.621Z,100.00
2022-11-07T09:37:45.378Z,100.00
2022-11-07T09:40:24.659Z,100.00
2022-11-07T09:43:05.169Z,100.00
2022-11-07T09:45:39.100Z,98.57
2022-11-07T09:48:18.752Z,96.64
2022-11-07T09:50:52.623Z,97.08
2022-11-07T09:53:33.157Z,95.87
2022-11-07T09:56:04.021Z,96.16
2022-11-07T09:58:35.737Z,95.34
2022-11-07T10:01:06.905Z,93.70
2022-11-07T10:03:43.154Z,88.75
2022-11-07T10:06:24.601Z,94.65
2022-11-07T10:09:01.149Z,89.75
2022-11-07T10:11:36.854Z,92.36
2022-11-07T10:14:22.621Z,90.34
2022-11-07T10:17:06.236Z,91.14
2022-11-07T10:19:47.356Z,91.27
2022-11-07T10:22:32.859Z,89.52
2022-11-07T10:25:17.092Z,93.14
2022-11-07T10:27:48.429Z,94.93
2022-11-07T10:30:18.507Z,92.17
2022-11-07T10:32:54.878Z,92.64
2022-11-07T10:35:29.404Z,93.72
2022-11-07T10:37:59.034Z,93.04
2022-11-07T10:40:33.514Z,94.14
2022-11-07T10:43:03.888Z,95.64
2022-11-07T10:45:32.531Z,97.35
2022-11-07T10:48:02.423Z,97.51
2022-11-07T10:50:32.440Z,97.14
2022-11-07T10:53:02.399Z,90.53
2022-11-07T10:55:42.815Z,94.33
2022-11-07T10:58:19.819Z,91.80
2022-11-07T11:00:58.631Z,92.46
2022-11-07T11:03:42.167Z,87.51
2022-11-07T11:06:28.111Z,85.14
2022-11-07T11:08:55.892Z,82.60
2022-11-07T11:11:29.913Z,83.52
2022-11-07T11:14:07.026Z,85.13
2022-11-07T11:16:40.032Z,86.59
2022-11-07T11:19:19.823Z,88.56
2022-11-07T11:21:55.399Z,88.94
2022-11-07T11:24:33.926Z,90.29
2022-11-07T11:27:06.042Z,91.22
2022-11-07T11:29:40.773Z,96.28
2022-11-07T11:32:17.611Z,98.88
2022-11-07T11:34:54.789Z,98.22
2022-11-07T11:37:27.235Z,97.34
2022-11-07T11:40:09.355Z,94.83
2022-11-07T11:42:46.957Z,94.97
2022-11-07T11:45:18.262Z,93.75
2022-11-07T11:47:58.156Z,92.29
2022-11-07T11:50:31.092Z,92.50
2022-11-07T11:53:03.267Z,91.89
2022-11-07T11:55:39.617Z,93.00
2022-11-07T11:58:18.945Z,91.99
2022-11-07T12:00:57.153Z,95.18
2022-11-07T12:03:57.590Z,99.14
2022-11-07T12:06:34.265Z,99.45
2022-11-07T12:09:32.787Z,94.26
2022-11-07T12:12:15.871Z,94.18
2022-11-07T12:15:13.790Z,91.67
2022-11-07T12:17:48.274Z,88.72
2022-11-07T12:20:22.575Z,89.68
2022-11-07T12:23:02.521Z,86.02
2022-11-07T12:25:39.903Z,90.18
2022-11-07T12:28:26.033Z,85.05
2022-11-07T12:31:02.946Z,82.32
2022-11-07T12:33:37.652Z,81.93
2022-11-07T12:36:14.706Z,84.22
2022-11-07T12:38:56.743Z,83.08
2022-11-07T12:41:34.483Z,86.53
2022-11-07T12:44:17.955Z,86.89
2022-11-07T12:46:49.682Z,84.90
2022-11-07T12:49:51.269Z,87.38
2022-11-07T12:52:31.683Z,85.50
2022-11-07T12:55:03.355Z,84.11
2022-11-07T12:57:38.065Z,86.81
2022-11-07T13:00:09.603Z,91.92
2022-11-07T13:02:57.314Z,96.12
2022-11-07T13:05:43.072Z,95.53
2022-11-07T13:08:19.799Z,92.19
2022-11-07T13:10:59.327Z,90.61
2022-11-07T13:13:36.709Z,88.50
2022-11-07T13:16:15.421Z,89.60
2022-11-07T13:18:43.651Z,92.16
2022-11-07T13:21:11.401Z,93.65
2022-11-07T13:23:40.376Z,95.81
2022-11-07T13:26:32.437Z,97.38
2022-11-07T13:28:59.472Z,95.59
2022-11-07T13:31:33.301Z,96.31
2022-11-07T13:34:26.060Z,94.32
2022-11-07T13:37:00.868Z,84.09
2022-11-07T13:39:35.940Z,84.20
2022-11-07T13:42:05.682Z,81.15
2022-11-07T13:44:38.068Z,82.12
2022-11-07T13:47:11.460Z,84.14
2022-11-07T13:49:44.984Z,87.17
2022-11-07T13:52:20.736Z,85.59
2022-11-07T13:54:53.518Z,85.48
2022-11-07T13:57:25.270Z,85.93
2022-11-07T13:59:58.311Z,87.96
2022-11-07T14:02:28.174Z,86.77
2022-11-07T14:07:49.400Z,87.37
2022-11-07T14:10:24.918Z,81.94
2022-11-07T14:12:55.675Z,83.06
2022-11-07T14:15:24.976Z,88.17
2022-11-07T14:17:55.321Z,92.69
2022-11-07T14:20:23.316Z,98.15
2022-11-07T14:22:53.953Z,100.00
2022-11-07T14:25:25.497Z,100.00
2022-11-07T14:27:53.482Z,100.00
2022-11-07T14:30:22.761Z,100.00
2022-11-07T14:32:54.214Z,100.00
2022-11-07T14:35:24.771Z,100.00
2022-11-07T14:37:52.619Z,100.00
2022-11-07T14:40:20.527Z,100.00
2022-11-07T14:42:49.196Z,100.00
2022-11-07T14:45:39.140Z,100.00
2022-11-07T14:48:11.332Z,100.00
2022-11-07T14:50:40.022Z,100.00
2022-11-07T14:53:12.066Z,100.00
2022-11-07T14:55:45.118Z,100.00
2022-11-07T14:58:13.613Z,100.00
2022-11-07T15:00:53.114Z,100.00
2022-11-07T15:03:30.797Z,100.00
2022-11-07T15:05:59.200Z,100.00
2022-11-07T15:08:30.352Z,100.00
2022-11-07T15:11:03.339Z,100.00
2022-11-07T15:13:34.081Z,100.00
2022-11-07T15:16:05.082Z,100.00
2022-11-07T15:18:38.794Z,100.00
2022-11-07T15:21:07.620Z,100.00
2022-11-07T15:23:36.293Z,100.00
2022-11-07T15:26:12.133Z,100.00
2022-11-07T15:28:48.075Z,100.00
2022-11-07T15:31:22.184Z,100.00
2022-11-07T15:33:51.626Z,100.00
2022-11-07T15:36:20.085Z,100.00
2022-11-07T15:38:49.151Z,100.00
2022-11-07T15:41:16.967Z,100.00
2022-11-07T15:43:44.975Z,100.00
2022-11-07T15:46:25.427Z,100.00
2022-11-07T15:48:54.600Z,100.00
2022-11-07T15:51:22.308Z,100.00
2022-11-07T15:53:50.309Z,100.00
2022-11-07T15:56:21.698Z,100.00
2022-11-07T15:58:49.505Z,100.00
2022-11-07T16:01:17.369Z,100.00
2022-11-07T16:03:45.158Z,100.00
2022-11-07T16:06:18.606Z,100.00
2022-11-07T16:08:46.291Z,100.00
2022-11-07T16:11:14.059Z,100.00
2022-11-07T16:13:41.728Z,100.00
2022-11-07T16:16:19.066Z,100.00
2022-11-07T16:18:50.928Z,100.00
2022-11-07T16:21:20.901Z,100.00
2022-11-07T16:23:49.732Z,100.00
2022-11-07T16:26:27.009Z,100.00
2022-11-07T16:28:54.886Z,100.00
2022-11-07T16:31:22.589Z,100.00
2022-11-07T16:33:50.426Z,100.00
2022-11-07T16:36:24.286Z,100.00
2022-11-07T16:38:52.329Z,100.00
2022-11-07T16:41:20.842Z,100.00
2022-11-07T16:43:52.127Z,100.00
2022-11-07T16:46:22.748Z,100.00
2022-11-07T16:48:53.121Z,100.00
2022-11-07T16:51:23.341Z,100.00
2022-11-07T16:53:51.031Z,100.00
2022-11-07T16:56:26.061Z,100.00
2022-11-07T16:58:55.122Z,100.00
2022-11-07T17:01:24.435Z,100.00
2022-11-07T17:03:52.889Z,100.00
2022-11-07T17:06:28.648Z,100.00
2022-11-07T17:09:06.139Z,100.00
2022-11-07T17:11:38.271Z,100.00
2022-11-07T17:14:05.931Z,100.00
2022-11-07T17:16:36.707Z,100.00
2022-11-07T17:19:05.491Z,100.00
2022-11-07T17:21:43.678Z,100.00
2022-11-07T17:24:11.466Z,100.00
2022-11-07T17:26:39.585Z,100.00
2022-11-07T17:29:12.371Z,100.00
2022-11-07T17:31:40.419Z,100.00
2022-11-07T17:34:08.130Z,100.00
2022-11-07T17:36:40.454Z,100.00
2022-11-07T17:39:12.311Z,100.00
2022-11-07T17:41:40.643Z,100.00
2022-11-07T17:44:08.754Z,100.00
2022-11-07T17:46:38.234Z,100.00
2022-11-07T17:49:07.900Z,100.00
2022-11-07T17:51:37.126Z,100.00
2022-11-07T17:54:05.270Z,100.00
2022-11-07T17:56:36.374Z,100.00
2022-11-07T17:59:06.519Z,100.00
2022-11-07T18:01:36.668Z,100.00
2022-11-07T18:04:05.718Z,100.00
2022-11-07T18:06:35.785Z,100.00
2022-11-07T18:09:06.304Z,100.00
2022-11-07T18:11:35.581Z,100.00
2022-11-07T18:14:03.798Z,100.00
2022-11-07T18:16:33.547Z,100.00
2022-11-07T18:19:02.413Z,100.00
2022-11-07T18:21:30.715Z,100.00
2022-11-07T18:23:58.422Z,100.00
2022-11-07T18:26:31.154Z,100.00
2022-11-07T18:29:02.682Z,100.00
2022-11-07T18:31:30.560Z,100.00
2022-11-07T18:33:59.651Z,100.00
2022-11-07T18:36:28.433Z,100.00
2022-11-07T18:38:56.121Z,100.00
2022-11-07T18:41:25.099Z,100.00
2022-11-07T18:43:54.311Z,100.00
2022-11-07T18:46:22.325Z,100.00
2022-11-07T18:48:50.724Z,100.00
2022-11-07T18:51:20.922Z,100.00
2022-11-07T18:53:49.345Z,100.00
2022-11-07T18:56:17.652Z,100.00
2022-11-07T18:58:45.898Z,100.00
2022-11-07T19:01:35.316Z,100.00
2022-11-07T19:04:05.760Z,100.00
2022-11-07T19:06:34.395Z,100.00
2022-11-07T19:09:03.136Z,100.00
2022-11-07T19:11:33.961Z,100.00
2022-11-07T19:14:03.239Z,100.00
2022-11-07T19:16:32.623Z,100.00
2022-11-07T19:19:01.069Z,100.00
2022-11-07T19:21:28.858Z,100.00
2022-11-07T19:23:56.946Z,100.00
2022-11-07T19:26:25.003Z,100.00
2022-11-07T19:28:53.926Z,100.00
2022-11-07T19:31:21.691Z,100.00
2022-11-07T19:33:51.317Z,100.00
2022-11-07T19:36:21.352Z,100.00
2022-11-07T19:38:49.596Z,100.00
2022-11-07T19:41:18.748Z,100.00
2022-11-07T19:43:49.996Z,100.00
2022-11-07T19:46:23.483Z,100.00
2022-11-07T19:48:53.200Z,100.00
2022-11-07T19:51:23.107Z,100.00
2022-11-07T19:53:55.064Z,100.00
2022-11-07T19:56:22.909Z,100.00
2022-11-07T19:58:50.619Z,100.00
2022-11-07T20:01:21.069Z,100.00
2022-11-07T20:03:54.167Z,100.00
2022-11-07T20:06:25.360Z,100.00
2022-11-07T20:08:53.440Z,100.00
2022-11-07T20:11:24.321Z,100.00
2022-11-07T20:14:00.107Z,100.00
2022-11-07T20:16:29.802Z,100.00
2022-11-07T20:18:58.884Z,100.00
2022-11-07T20:21:29.009Z,100.00
2022-11-07T20:23:59.357Z,100.00
2022-11-07T20:26:32.541Z,100.00
2022-11-07T20:29:00.547Z,100.00
2022-11-07T20:31:29.867Z,100.00
2022-11-07T20:34:00.841Z,100.00
2022-11-07T20:36:28.989Z,100.00
2022-11-07T20:38:57.124Z,100.00
2022-11-07T20:41:27.153Z,100.00
2022-11-07T20:43:55.345Z,100.00
2022-11-07T20:46:23.177Z,100.00
2022-11-07T20:48:51.236Z,100.00
2022-11-07T20:51:22.385Z,100.00
2022-11-07T20:53:51.017Z,100.00
2022-11-07T20:56:19.691Z,100.00
2022-11-07T20:58:47.914Z,100.00
2022-11-07T21:01:18.259Z,100.00
2022-11-07T21:03:46.457Z,100.00
2022-11-07T21:06:16.583Z,100.00
2022-11-07T21:08:47.235Z,100.00
2022-11-07T21:11:16.579Z,100.00
2022-11-07T21:13:52.358Z,100.00
2022-11-07T21:16:24.006Z,100.00
2022-11-07T21:18:52.671Z,100.00
2022-11-07T21:21:22.795Z,100.00
2022-11-07T21:23:53.446Z,100.00
2022-11-07T21:26:23.977Z,100.00
2022-11-07T21:28:51.772Z,100.00
2022-11-07T21:31:24.271Z,100.00
2022-11-07T21:33:52.212Z,100.00
2022-11-07T21:36:21.942Z,100.00
2022-11-07T21:38:51.016Z,100.00
2022-11-07T21:41:18.764Z,100.00
2022-11-07T21:43:46.779Z,100.00
2022-11-07T21:46:16.285Z,100.00
2022-11-07T21:48:44.547Z,100.00
2022-11-07T21:51:15.347Z,100.00
2022-11-07T21:53:43.443Z,100.00
2022-11-07T21:56:16.192Z,100.00
2022-11-07T21:58:44.640Z,100.00
2022-11-07T22:01:12.496Z,100.00
2022-11-07T22:06:27.984Z,100.00
2022-11-07T22:08:55.885Z,100.00
2022-11-07T22:11:25.105Z,100.00
2022-11-07T22:13:52.859Z,100.00
2022-11-07T22:16:21.715Z,100.00
2022-11-07T22:18:50.605Z,100.00
2022-11-07T22:21:20.735Z,100.00
2022-11-07T22:23:49.084Z,100.00
2022-11-07T22:26:19.209Z,100.00
2022-11-07T22:28:48.724Z,100.00
2022-11-07T22:31:18.396Z,100.00
2022-11-07T22:33:46.123Z,100.00
2022-11-07T22:36:15.872Z,100.00
2022-11-07T22:38:45.453Z,100.00
2022-11-07T22:41:18.914Z,100.00
2022-11-07T22:43:48.999Z,100.00
2022-11-07T22:46:18.797Z,100.00
2022-11-07T22:48:48.338Z,100.00
2022-11-07T22:51:21.213Z,100.00
2022-11-07T22:53:51.206Z,100.00
2022-11-07T22:56:20.348Z,100.00
2022-11-07T23:04:19.827Z,100.00
2022-11-07T23:06:47.533Z,100.00
2022-11-07T23:09:16.400Z,100.00
2022-11-07T23:11:47.485Z,100.00
2022-11-07T23:14:17.897Z,100.00
2022-11-07T23:16:47.749Z,100.00
2022-11-07T23:19:17.251Z,100.00
2022-11-07T23:21:46.552Z,100.00
2022-11-07T23:24:14.330Z,100.00
2022-11-07T23:26:42.366Z,100.00
2022-11-07T23:29:15.057Z,100.00
2022-11-07T23:31:44.601Z,100.00
2022-11-07T23:34:12.699Z,100.00
2022-11-07T23:36:43.766Z,100.00
2022-11-07T23:39:15.441Z,100.00
2022-11-07T23:41:43.609Z,100.00
2022-11-07T23:44:12.088Z,100.00
2022-11-07T23:46:57.260Z,100.00
2022-11-07T23:49:42.560Z,100.00
2022-11-07T23:52:10.369Z,100.00
2022-11-07T23:54:59.979Z,100.00
2022-11-07T23:57:27.881Z,100.00
